sensor_id;sensor_type;location;lat;lon;timestamp;pressure;altitude;pressure_sealevel;temperature;humidity
41040;BME280;48586;50.122;18.972;2022-10-30T00:00:22;99106.94;;;13.11;79.66
41040;BME280;48586;50.122;18.972;2022-10-30T00:03:24;99106.53;;;13.07;79.57
41040;BME280;48586;50.122;18.972;2022-10-30T00:06:27;99105.75;;;13.00;80.04
41040;BME280;48586;50.122;18.972;2022-10-30T00:09:29;99110.47;;;12.98;80.07
41040;BME280;48586;50.122;18.972;2022-10-30T00:12:32;99116.38;;;13.00;80.05
41040;BME280;48586;50.122;18.972;2022-10-30T00:15:34;99122.97;;;12.91;80.97
41040;BME280;48586;50.122;18.972;2022-10-30T00:18:37;99120.31;;;12.91;80.49
41040;BME280;48586;50.122;18.972;2022-10-30T00:21:41;99109.28;;;12.87;80.70
41040;BME280;48586;50.122;18.972;2022-10-30T00:24:44;99111.94;;;12.87;80.88
41040;BME280;48586;50.122;18.972;2022-10-30T00:27:47;99105.97;;;12.92;80.92
41040;BME280;48586;50.122;18.972;2022-10-30T00:30:49;99110.88;;;12.95;80.94
41040;BME280;48586;50.122;18.972;2022-10-30T00:33:53;99112.09;;;12.99;80.38
41040;BME280;48586;50.122;18.972;2022-10-30T00:36:55;99116.38;;;13.00;80.23
41040;BME280;48586;50.122;18.972;2022-10-30T00:39:57;99121.09;;;12.98;80.97
41040;BME280;48586;50.122;18.972;2022-10-30T00:43:01;99115.78;;;12.98;81.39
41040;BME280;48586;50.122;18.972;2022-10-30T00:46:06;99126.84;;;13.02;80.72
41040;BME280;48586;50.122;18.972;2022-10-30T00:49:15;99124.81;;;12.97;81.08
41040;BME280;48586;50.122;18.972;2022-10-30T00:52:19;99127.66;;;12.95;81.16
41040;BME280;48586;50.122;18.972;2022-10-30T00:55:25;99122.97;;;12.91;81.65
41040;BME280;48586;50.122;18.972;2022-10-30T00:58:32;99115.81;;;12.91;81.86
41040;BME280;48586;50.122;18.972;2022-10-30T01:01:37;99112.94;;;12.93;81.61
41040;BME280;48586;50.122;18.972;2022-10-30T01:04:42;99101.69;;;12.91;81.65
41040;BME280;48586;50.122;18.972;2022-10-30T01:07:45;99093.31;;;12.87;82.88
41040;BME280;48586;50.122;18.972;2022-10-30T01:10:48;99099.84;;;12.91;81.67
41040;BME280;48586;50.122;18.972;2022-10-30T01:13:54;99097.00;;;12.93;81.92
41040;BME280;48586;50.122;18.972;2022-10-30T01:20:31;99101.91;;;12.89;83.06
41040;BME280;48586;50.122;18.972;2022-10-30T01:23:47;99099.47;;;12.88;82.09
41040;BME280;48586;50.122;18.972;2022-10-30T01:26:59;99103.13;;;12.93;81.91
41040;BME280;48586;50.122;18.972;2022-10-30T01:30:13;99105.16;;;12.98;81.82
41040;BME280;48586;50.122;18.972;2022-10-30T01:33:27;99104.72;;;13.01;81.67
41040;BME280;48586;50.122;18.972;2022-10-30T01:36:36;99107.00;;;12.98;82.62
41040;BME280;48586;50.122;18.972;2022-10-30T01:39:41;99095.72;;;12.95;82.15
41040;BME280;48586;50.122;18.972;2022-10-30T01:42:47;99103.28;;;12.99;82.48
41040;BME280;48586;50.122;18.972;2022-10-30T01:46:10;99103.88;;;13.01;82.10
41040;BME280;48586;50.122;18.972;2022-10-30T01:49:32;99098.16;;;13.04;82.64
41040;BME280;48586;50.122;18.972;2022-10-30T01:52:47;99094.91;;;13.02;82.66
41040;BME280;48586;50.122;18.972;2022-10-30T01:55:55;99097.13;;;13.05;82.34
41040;BME280;48586;50.122;18.972;2022-10-30T01:59:02;99092.63;;;13.05;82.09
41040;BME280;48586;50.122;18.972;2022-10-30T02:02:10;99110.00;;;13.08;82.18
41040;BME280;48586;50.122;18.972;2022-10-30T02:05:19;99110.41;;;13.11;82.28
41040;BME280;48586;50.122;18.972;2022-10-30T02:08:22;99117.75;;;13.09;82.34
41040;BME280;48586;50.122;18.972;2022-10-30T02:11:28;99111.25;;;13.05;82.68
41040;BME280;48586;50.122;18.972;2022-10-30T02:14:35;99116.38;;;13.07;82.42
41040;BME280;48586;50.122;18.972;2022-10-30T02:17:41;99115.72;;;13.11;82.17
41040;BME280;48586;50.122;18.972;2022-10-30T02:20:45;99102.81;;;13.15;82.29
41040;BME280;48586;50.122;18.972;2022-10-30T02:23:47;99101.34;;;13.19;82.30
41040;BME280;48586;50.122;18.972;2022-10-30T02:26:49;99095.00;;;13.20;82.26
41040;BME280;48586;50.122;18.972;2022-10-30T02:29:51;99090.72;;;13.19;82.26
41040;BME280;48586;50.122;18.972;2022-10-30T02:32:53;99087.81;;;13.27;82.08
41040;BME280;48586;50.122;18.972;2022-10-30T02:35:56;99094.34;;;13.31;81.98
41040;BME280;48586;50.122;18.972;2022-10-30T02:38:58;99093.47;;;13.37;81.79
41040;BME280;48586;50.122;18.972;2022-10-30T02:42:00;99091.03;;;13.36;81.25
41040;BME280;48586;50.122;18.972;2022-10-30T02:45:02;99092.69;;;13.30;81.75
41040;BME280;48586;50.122;18.972;2022-10-30T02:48:04;99078.34;;;13.31;81.55
41040;BME280;48586;50.122;18.972;2022-10-30T02:51:08;99077.16;;;13.27;81.73
41040;BME280;48586;50.122;18.972;2022-10-30T02:54:12;99074.50;;;13.27;81.93
41040;BME280;48586;50.122;18.972;2022-10-30T02:57:14;99081.66;;;13.27;82.06
41040;BME280;48586;50.122;18.972;2022-10-30T03:00:16;99080.22;;;13.24;82.18
41040;BME280;48586;50.122;18.972;2022-10-30T03:03:18;99081.84;;;13.25;81.68
41040;BME280;48586;50.122;18.972;2022-10-30T03:06:21;99080.81;;;13.26;81.87
41040;BME280;48586;50.122;18.972;2022-10-30T03:09:24;99084.53;;;13.25;81.80
41040;BME280;48586;50.122;18.972;2022-10-30T03:12:25;99092.13;;;13.21;81.82
41040;BME280;48586;50.122;18.972;2022-10-30T03:15:27;99098.25;;;13.22;81.76
41040;BME280;48586;50.122;18.972;2022-10-30T03:18:29;99095.00;;;13.20;81.81
41040;BME280;48586;50.122;18.972;2022-10-30T03:21:37;99096.06;;;13.12;82.58
41040;BME280;48586;50.122;18.972;2022-10-30T03:24:38;99092.81;;;13.10;82.08
41040;BME280;48586;50.122;18.972;2022-10-30T03:27:40;99102.81;;;13.15;82.18
41040;BME280;48586;50.122;18.972;2022-10-30T03:30:42;99106.50;;;13.14;82.49
41040;BME280;48586;50.122;18.972;2022-10-30T03:33:44;99110.78;;;13.15;82.33
41040;BME280;48586;50.122;18.972;2022-10-30T03:36:47;99112.59;;;13.21;81.78
41040;BME280;48586;50.122;18.972;2022-10-30T03:39:49;99110.31;;;13.25;81.91
41040;BME280;48586;50.122;18.972;2022-10-30T03:42:55;99107.28;;;13.21;81.80
41040;BME280;48586;50.122;18.972;2022-10-30T03:45:57;99112.41;;;13.23;81.77
41040;BME280;48586;50.122;18.972;2022-10-30T03:48:59;99108.69;;;13.24;81.79
41040;BME280;48586;50.122;18.972;2022-10-30T03:52:02;99114.41;;;13.27;81.79
41040;BME280;48586;50.122;18.972;2022-10-30T03:55:05;99110.09;;;13.26;81.92
41040;BME280;48586;50.122;18.972;2022-10-30T03:58:09;99100.28;;;13.27;81.35
41040;BME280;48586;50.122;18.972;2022-10-30T04:01:12;99091.06;;;13.29;81.76
41040;BME280;48586;50.122;18.972;2022-10-30T04:04:16;99087.00;;;13.27;81.71
41040;BME280;48586;50.122;18.972;2022-10-30T04:07:20;99091.91;;;13.23;81.63
41040;BME280;48586;50.122;18.972;2022-10-30T04:10:22;99083.53;;;13.19;82.24
41040;BME280;48586;50.122;18.972;2022-10-30T04:13:24;99103.00;;;13.13;82.44
41040;BME280;48586;50.122;18.972;2022-10-30T04:16:27;99096.47;;;13.09;82.61
41040;BME280;48586;50.122;18.972;2022-10-30T04:19:30;99096.53;;;13.03;82.68
41040;BME280;48586;50.122;18.972;2022-10-30T04:22:34;99095.13;;;12.93;82.82
41040;BME280;48586;50.122;18.972;2022-10-30T04:25:36;99091.22;;;12.96;82.50
41040;BME280;48586;50.122;18.972;2022-10-30T04:28:38;99091.84;;;12.98;82.50
41040;BME280;48586;50.122;18.972;2022-10-30T04:31:40;99090.41;;;13.02;82.79
41040;BME280;48586;50.122;18.972;2022-10-30T04:34:41;99081.59;;;13.02;82.44
41040;BME280;48586;50.122;18.972;2022-10-30T04:37:51;99094.91;;;12.95;83.11
41040;BME280;48586;50.122;18.972;2022-10-30T04:40:52;99086.75;;;12.97;82.83
41040;BME280;48586;50.122;18.972;2022-10-30T04:43:54;99093.13;;;12.89;83.32
41040;BME280;48586;50.122;18.972;2022-10-30T04:46:56;99092.50;;;12.87;83.03
41040;BME280;48586;50.122;18.972;2022-10-30T04:49:58;99092.50;;;12.87;82.80
41040;BME280;48586;50.122;18.972;2022-10-30T04:53:04;99095.97;;;12.87;82.91
41040;BME280;48586;50.122;18.972;2022-10-30T04:56:06;99092.72;;;12.85;83.08
41040;BME280;48586;50.122;18.972;2022-10-30T04:59:08;99093.53;;;12.86;82.95
41040;BME280;48586;50.122;18.972;2022-10-30T05:02:11;99099.50;;;12.81;83.26
41040;BME280;48586;50.122;18.972;2022-10-30T05:05:12;99101.75;;;12.84;82.80
41040;BME280;48586;50.122;18.972;2022-10-30T05:08:15;99093.31;;;12.87;82.99
41040;BME280;48586;50.122;18.972;2022-10-30T05:11:17;99097.19;;;12.91;83.09
41040;BME280;48586;50.122;18.972;2022-10-30T05:14:20;99092.09;;;12.90;82.95
41040;BME280;48586;50.122;18.972;2022-10-30T05:17:22;99090.22;;;12.90;82.97
41040;BME280;48586;50.122;18.972;2022-10-30T05:20:24;99091.69;;;12.86;82.81
41040;BME280;48586;50.122;18.972;2022-10-30T05:23:27;99092.50;;;12.87;82.65
41040;BME280;48586;50.122;18.972;2022-10-30T05:26:30;99101.06;;;12.95;82.76
41040;BME280;48586;50.122;18.972;2022-10-30T05:29:31;99097.34;;;13.03;82.59
41040;BME280;48586;50.122;18.972;2022-10-30T05:32:33;99101.44;;;13.06;82.81
41040;BME280;48586;50.122;18.972;2022-10-30T05:35:36;99103.22;;;13.12;82.31
41040;BME280;48586;50.122;18.972;2022-10-30T05:38:40;99099.75;;;13.11;82.32
41040;BME280;48586;50.122;18.972;2022-10-30T05:41:46;99097.72;;;13.07;82.22
41040;BME280;48586;50.122;18.972;2022-10-30T05:44:49;99105.31;;;13.10;82.53
41040;BME280;48586;50.122;18.972;2022-10-30T05:47:54;99101.84;;;13.03;82.54
41040;BME280;48586;50.122;18.972;2022-10-30T05:50:56;99100.63;;;12.99;82.85
41040;BME280;48586;50.122;18.972;2022-10-30T05:54:03;99099.81;;;12.98;82.59
41040;BME280;48586;50.122;18.972;2022-10-30T05:57:07;99093.72;;;12.91;83.17
41040;BME280;48586;50.122;18.972;2022-10-30T06:00:12;99099.66;;;12.86;83.34
41040;BME280;48586;50.122;18.972;2022-10-30T06:03:16;99097.41;;;12.83;82.82
41040;BME280;48586;50.122;18.972;2022-10-30T06:06:19;99106.44;;;12.82;82.81
41040;BME280;48586;50.122;18.972;2022-10-30T06:09:22;99109.72;;;12.84;83.10
41040;BME280;48586;50.122;18.972;2022-10-30T06:12:51;99109.47;;;12.92;82.94
41040;BME280;48586;50.122;18.972;2022-10-30T06:16:08;99105.59;;;12.88;83.00
41040;BME280;48586;50.122;18.972;2022-10-30T06:19:29;99107.69;;;12.80;83.52
41040;BME280;48586;50.122;18.972;2022-10-30T06:22:52;99111.34;;;12.79;83.49
41040;BME280;48586;50.122;18.972;2022-10-30T06:25:55;99108.47;;;12.87;83.22
41040;BME280;48586;50.122;18.972;2022-10-30T06:29:05;99112.09;;;12.99;83.04
41040;BME280;48586;50.122;18.972;2022-10-30T06:32:07;99106.50;;;13.14;82.63
41040;BME280;48586;50.122;18.972;2022-10-30T06:35:09;99110.56;;;13.16;82.52
41040;BME280;48586;50.122;18.972;2022-10-30T06:38:11;99115.50;;;13.13;82.40
41040;BME280;48586;50.122;18.972;2022-10-30T06:41:16;99113.28;;;13.10;82.42
41040;BME280;48586;50.122;18.972;2022-10-30T06:44:32;99118.81;;;13.08;82.37
41040;BME280;48586;50.122;18.972;2022-10-30T06:47:33;99112.41;;;13.16;82.63
41040;BME280;48586;50.122;18.972;2022-10-30T06:50:35;99122.00;;;13.24;82.25
41040;BME280;48586;50.122;18.972;2022-10-30T06:53:37;99124.06;;;13.21;82.04
41040;BME280;48586;50.122;18.972;2022-10-30T06:56:59;99122.03;;;13.17;82.15
41040;BME280;48586;50.122;18.972;2022-10-30T07:00:16;99116.50;;;13.18;82.37
41040;BME280;48586;50.122;18.972;2022-10-30T07:03:37;99111.31;;;13.30;81.83
41040;BME280;48586;50.122;18.972;2022-10-30T07:06:38;99118.06;;;13.33;82.02
41040;BME280;48586;50.122;18.972;2022-10-30T07:09:40;99117.41;;;13.44;81.87
41040;BME280;48586;50.122;18.972;2022-10-30T07:12:49;99112.97;;;13.63;81.13
41040;BME280;48586;50.122;18.972;2022-10-30T07:16:07;99119.91;;;13.70;81.09
41040;BME280;48586;50.122;18.972;2022-10-30T07:19:12;99109.06;;;13.90;80.75
41040;BME280;48586;50.122;18.972;2022-10-30T07:22:14;99113.16;;;13.93;80.35
41040;BME280;48586;50.122;18.972;2022-10-30T07:25:20;99115.59;;;13.94;80.00
41040;BME280;48586;50.122;18.972;2022-10-30T07:28:31;99113.03;;;14.06;79.91
41040;BME280;48586;50.122;18.972;2022-10-30T07:31:59;99116.00;;;14.16;79.63
41040;BME280;48586;50.122;18.972;2022-10-30T07:35:19;99113.41;;;14.35;79.29
41040;BME280;48586;50.122;18.972;2022-10-30T07:38:39;99113.44;;;14.46;78.99
41040;BME280;48586;50.122;18.972;2022-10-30T07:41:56;99109.97;;;14.64;78.95
41040;BME280;48586;50.122;18.972;2022-10-30T07:45:32;99113.91;;;14.80;78.16
41040;BME280;48586;50.122;18.972;2022-10-30T07:48:54;99108.69;;;14.85;77.75
41040;BME280;48586;50.122;18.972;2022-10-30T07:52:14;99108.81;;;14.97;76.85
41040;BME280;48586;50.122;18.972;2022-10-30T07:55:16;99107.88;;;15.03;77.04
41040;BME280;48586;50.122;18.972;2022-10-30T07:58:37;99102.91;;;15.07;76.81
41040;BME280;48586;50.122;18.972;2022-10-30T08:01:58;99094.72;;;15.20;76.62
41040;BME280;48586;50.122;18.972;2022-10-30T08:05:19;99099.34;;;15.43;76.28
41040;BME280;48586;50.122;18.972;2022-10-30T08:08:40;99093.59;;;15.69;75.82
41040;BME280;48586;50.122;18.972;2022-10-30T08:11:53;99087.00;;;15.95;74.93
41040;BME280;48586;50.122;18.972;2022-10-30T08:14:56;99092.59;;;16.06;74.44
41040;BME280;48586;50.122;18.972;2022-10-30T08:17:59;99083.06;;;16.22;73.76
41040;BME280;48586;50.122;18.972;2022-10-30T08:21:02;99084.19;;;16.37;73.71
41040;BME280;48586;50.122;18.972;2022-10-30T08:24:04;99087.09;;;16.59;72.91
41040;BME280;48586;50.122;18.972;2022-10-30T08:27:08;99085.31;;;16.77;72.59
41040;BME280;48586;50.122;18.972;2022-10-30T08:30:12;99098.06;;;16.98;72.43
41040;BME280;48586;50.122;18.972;2022-10-30T08:33:15;99091.94;;;17.14;71.74
41040;BME280;48586;50.122;18.972;2022-10-30T08:36:53;99092.06;;;17.36;71.38
41040;BME280;48586;50.122;18.972;2022-10-30T08:39:55;99074.56;;;17.62;70.77
41040;BME280;48586;50.122;18.972;2022-10-30T08:43:11;99079.19;;;18.01;70.85
41040;BME280;48586;50.122;18.972;2022-10-30T08:46:14;99071.50;;;18.43;69.84
41040;BME280;48586;50.122;18.972;2022-10-30T08:49:17;99072.31;;;18.65;67.92
41040;BME280;48586;50.122;18.972;2022-10-30T08:52:25;99063.75;;;18.90;67.25
41040;BME280;48586;50.122;18.972;2022-10-30T08:55:31;99070.53;;;19.20;67.25
41040;BME280;48586;50.122;18.972;2022-10-30T08:58:36;99062.38;;;19.37;66.51
41040;BME280;48586;50.122;18.972;2022-10-30T09:01:39;99073.84;;;19.59;65.12
41040;BME280;48586;50.122;18.972;2022-10-30T09:04:54;99073.16;;;19.74;64.42
41040;BME280;48586;50.122;18.972;2022-10-30T09:08:22;99069.63;;;20.01;63.91
41040;BME280;48586;50.122;18.972;2022-10-30T09:11:27;99065.25;;;20.37;63.24
41040;BME280;48586;50.122;18.972;2022-10-30T09:14:32;99059.13;;;20.52;62.99
41040;BME280;48586;50.122;18.972;2022-10-30T09:17:34;99065.72;;;20.81;62.45
41040;BME280;48586;50.122;18.972;2022-10-30T09:20:37;99068.00;;;21.15;60.46
41040;BME280;48586;50.122;18.972;2022-10-30T09:23:41;99059.94;;;21.45;60.43
41040;BME280;48586;50.122;18.972;2022-10-30T09:27:02;99057.53;;;21.90;60.07
41040;BME280;48586;50.122;18.972;2022-10-30T09:30:11;99051.25;;;22.20;58.97
41040;BME280;48586;50.122;18.972;2022-10-30T09:33:18;99042.25;;;22.50;57.62
41040;BME280;48586;50.122;18.972;2022-10-30T09:36:48;99049.75;;;22.74;57.45
41040;BME280;48586;50.122;18.972;2022-10-30T09:39:51;99048.00;;;22.98;56.13
41040;BME280;48586;50.122;18.972;2022-10-30T09:43:02;99042.19;;;23.20;54.65
41040;BME280;48586;50.122;18.972;2022-10-30T09:46:26;99053.78;;;22.76;50.19
41040;BME280;48586;50.122;18.972;2022-10-30T09:49:42;99061.31;;;22.84;53.65
41040;BME280;48586;50.122;18.972;2022-10-30T09:53:01;99059.09;;;22.97;53.57
41040;BME280;48586;50.122;18.972;2022-10-30T09:56:07;99054.03;;;23.34;54.26
41040;BME280;48586;50.122;18.972;2022-10-30T09:59:17;99048.41;;;23.60;52.51
41040;BME280;48586;50.122;18.972;2022-10-30T10:02:31;99046.41;;;23.36;51.27
41040;BME280;48586;50.122;18.972;2022-10-30T10:05:41;99041.34;;;23.30;50.79
41040;BME280;48586;50.122;18.972;2022-10-30T10:09:19;99045.38;;;23.32;51.31
41040;BME280;48586;50.122;18.972;2022-10-30T10:12:49;99049.63;;;23.43;51.99
41040;BME280;48586;50.122;18.972;2022-10-30T10:15:54;99049.34;;;23.45;51.62
41040;BME280;48586;50.122;18.972;2022-10-30T10:19:03;99049.13;;;23.71;51.53
41040;BME280;48586;50.122;18.972;2022-10-30T10:22:16;99048.59;;;24.27;50.05
41040;BME280;48586;50.122;18.972;2022-10-30T10:25:22;99043.28;;;24.40;50.42
41040;BME280;48586;50.122;18.972;2022-10-30T10:28:45;99042.91;;;24.28;48.67
41040;BME280;48586;50.122;18.972;2022-10-30T10:31:54;99053.22;;;24.26;46.77
41040;BME280;48586;50.122;18.972;2022-10-30T10:38:37;99031.94;;;24.62;44.58
41040;BME280;48586;50.122;18.972;2022-10-30T10:41:52;99038.22;;;24.82;46.12
41040;BME280;48586;50.122;18.972;2022-10-30T10:45:11;99040.03;;;24.86;47.12
41040;BME280;48586;50.122;18.972;2022-10-30T10:48:32;99043.78;;;25.09;46.43
41040;BME280;48586;50.122;18.972;2022-10-30T10:51:44;99043.56;;;25.25;47.50
41040;BME280;48586;50.122;18.972;2022-10-30T10:54:50;99030.44;;;25.83;47.34
41040;BME280;48586;50.122;18.972;2022-10-30T10:57:58;99024.34;;;26.47;46.72
41040;BME280;48586;50.122;18.972;2022-10-30T11:01:01;99018.31;;;27.00;46.28
41040;BME280;48586;50.122;18.972;2022-10-30T11:04:07;99021.09;;;27.22;44.38
41040;BME280;48586;50.122;18.972;2022-10-30T11:07:21;99009.41;;;27.22;42.32
41040;BME280;48586;50.122;18.972;2022-10-30T11:10:24;99011.47;;;27.47;44.20
41040;BME280;48586;50.122;18.972;2022-10-30T11:13:29;99006.16;;;27.64;43.15
41040;BME280;48586;50.122;18.972;2022-10-30T11:16:37;98999.69;;;27.74;38.62
41040;BME280;48586;50.122;18.972;2022-10-30T11:19:42;98994.22;;;27.74;42.69
41040;BME280;48586;50.122;18.972;2022-10-30T11:22:49;98998.56;;;27.75;39.19
41040;BME280;48586;50.122;18.972;2022-10-30T11:25:51;98996.25;;;27.69;41.73
41040;BME280;48586;50.122;18.972;2022-10-30T11:28:57;99001.91;;;27.72;41.42
41040;BME280;48586;50.122;18.972;2022-10-30T11:32:01;98999.03;;;27.77;41.39
41040;BME280;48586;50.122;18.972;2022-10-30T11:35:12;98992.94;;;27.72;39.76
41040;BME280;48586;50.122;18.972;2022-10-30T11:38:18;98995.41;;;27.82;41.81
41040;BME280;48586;50.122;18.972;2022-10-30T11:41:20;99000.19;;;27.54;42.20
41040;BME280;48586;50.122;18.972;2022-10-30T11:44:27;98984.97;;;27.30;42.36
41040;BME280;48586;50.122;18.972;2022-10-30T11:47:32;98984.41;;;27.20;42.33
41040;BME280;48586;50.122;18.972;2022-10-30T11:50:35;98993.41;;;26.70;43.05
41040;BME280;48586;50.122;18.972;2022-10-30T11:53:40;98994.03;;;25.98;41.25
41040;BME280;48586;50.122;18.972;2022-10-30T11:56:45;98992.66;;;25.35;43.99
41040;BME280;48586;50.122;18.972;2022-10-30T11:59:53;98998.78;;;25.27;43.98
41040;BME280;48586;50.122;18.972;2022-10-30T12:02:57;98999.09;;;25.39;44.64
41040;BME280;48586;50.122;18.972;2022-10-30T12:06:08;98990.38;;;25.75;44.02
41040;BME280;48586;50.122;18.972;2022-10-30T12:09:11;98992.22;;;26.07;44.09
41040;BME280;48586;50.122;18.972;2022-10-30T12:12:21;98989.50;;;25.93;43.63
41040;BME280;48586;50.122;18.972;2022-10-30T12:15:25;98991.38;;;25.47;44.73
41040;BME280;48586;50.122;18.972;2022-10-30T12:18:28;98995.03;;;25.23;45.38
41040;BME280;48586;50.122;18.972;2022-10-30T12:21:37;98990.50;;;25.00;45.59
41040;BME280;48586;50.122;18.972;2022-10-30T12:24:42;98986.69;;;25.01;46.01
41040;BME280;48586;50.122;18.972;2022-10-30T12:27:45;98990.94;;;25.07;45.97
41040;BME280;48586;50.122;18.972;2022-10-30T12:30:52;98989.31;;;25.25;45.89
41040;BME280;48586;50.122;18.972;2022-10-30T12:34:05;98995.09;;;25.37;44.99
41040;BME280;48586;50.122;18.972;2022-10-30T12:37:11;98988.47;;;25.43;45.01
41040;BME280;48586;50.122;18.972;2022-10-30T12:40:18;98989.34;;;25.38;45.87
41040;BME280;48586;50.122;18.972;2022-10-30T12:43:25;98976.63;;;25.20;45.58
41040;BME280;48586;50.122;18.972;2022-10-30T12:46:34;98985.19;;;24.71;46.31
41040;BME280;48586;50.122;18.972;2022-10-30T12:49:40;98977.84;;;24.33;46.31
41040;BME280;48586;50.122;18.972;2022-10-30T12:52:47;98975.22;;;24.23;47.05
41040;BME280;48586;50.122;18.972;2022-10-30T12:55:54;98979.44;;;24.34;47.37
41040;BME280;48586;50.122;18.972;2022-10-30T12:59:12;98970.59;;;24.29;46.78
41040;BME280;48586;50.122;18.972;2022-10-30T13:02:28;98967.97;;;24.18;47.58
41040;BME280;48586;50.122;18.972;2022-10-30T13:05:34;98966.03;;;24.24;47.77
41040;BME280;48586;50.122;18.972;2022-10-30T13:08:41;98963.38;;;24.19;47.92
41040;BME280;48586;50.122;18.972;2022-10-30T13:11:50;98962.16;;;24.30;48.49
41040;BME280;48586;50.122;18.972;2022-10-30T13:14:57;98955.44;;;24.47;47.80
41040;BME280;48586;50.122;18.972;2022-10-30T13:18:11;98960.16;;;24.60;47.89
41040;BME280;48586;50.122;18.972;2022-10-30T13:21:20;98956.84;;;24.63;47.82
41040;BME280;48586;50.122;18.972;2022-10-30T13:24:29;98967.97;;;24.42;47.92
41040;BME280;48586;50.122;18.972;2022-10-30T13:27:41;98959.31;;;24.40;48.10
41040;BME280;48586;50.122;18.972;2022-10-30T13:30:55;98953.03;;;24.45;47.75
41040;BME280;48586;50.122;18.972;2022-10-30T13:34:05;98949.81;;;24.43;47.92
41040;BME280;48586;50.122;18.972;2022-10-30T13:37:15;98947.50;;;24.31;47.52
41040;BME280;48586;50.122;18.972;2022-10-30T13:40:24;98961.13;;;24.26;48.32
41040;BME280;48586;50.122;18.972;2022-10-30T13:43:36;98950.44;;;24.16;48.35
41040;BME280;48586;50.122;18.972;2022-10-30T13:46:53;98952.59;;;24.14;48.58
41040;BME280;48586;50.122;18.972;2022-10-30T13:50:15;98957.06;;;24.00;47.30
41040;BME280;48586;50.122;18.972;2022-10-30T13:53:25;98966.28;;;23.75;48.60
41040;BME280;48586;50.122;18.972;2022-10-30T13:56:28;98965.28;;;23.65;49.17
41040;BME280;48586;50.122;18.972;2022-10-30T13:59:46;98961.47;;;23.66;49.58
41040;BME280;48586;50.122;18.972;2022-10-30T14:03:07;98963.91;;;23.68;49.28
41040;BME280;48586;50.122;18.972;2022-10-30T14:06:21;98951.94;;;23.50;49.34
41040;BME280;48586;50.122;18.972;2022-10-30T14:09:32;98959.38;;;23.29;50.23
41040;BME280;48586;50.122;18.972;2022-10-30T14:12:44;98958.13;;;23.16;50.30
41040;BME280;48586;50.122;18.972;2022-10-30T14:15:47;98964.44;;;23.02;51.20
41040;BME280;48586;50.122;18.972;2022-10-30T14:19:00;98968.06;;;22.87;50.91
41040;BME280;48586;50.122;18.972;2022-10-30T14:22:21;98965.19;;;22.73;51.50
41040;BME280;48586;50.122;18.972;2022-10-30T14:25:24;98958.00;;;22.53;51.86
41040;BME280;48586;50.122;18.972;2022-10-30T14:28:26;98957.72;;;22.50;51.83
41040;BME280;48586;50.122;18.972;2022-10-30T14:31:33;98970.19;;;22.40;52.36
41040;BME280;48586;50.122;18.972;2022-10-30T14:34:39;98968.84;;;22.33;52.10
41040;BME280;48586;50.122;18.972;2022-10-30T14:37:55;98958.38;;;22.26;52.30
41040;BME280;48586;50.122;18.972;2022-10-30T14:41:19;98968.69;;;22.14;52.45
41040;BME280;48586;50.122;18.972;2022-10-30T14:47:54;98970.38;;;21.94;53.06
41040;BME280;48586;50.122;18.972;2022-10-30T14:51:04;98965.78;;;21.90;53.07
41040;BME280;48586;50.122;18.972;2022-10-30T14:54:20;98940.97;;;21.88;53.13
41040;BME280;48586;50.122;18.972;2022-10-30T14:57:43;98944.75;;;21.77;53.23
41040;BME280;48586;50.122;18.972;2022-10-30T15:00:47;98955.81;;;21.60;53.58
41040;BME280;48586;50.122;18.972;2022-10-30T15:03:57;98952.88;;;21.51;53.77
41040;BME280;48586;50.122;18.972;2022-10-30T15:07:07;98956.41;;;21.36;54.17
41040;BME280;48586;50.122;18.972;2022-10-30T15:10:19;98952.06;;;21.25;54.32
41040;BME280;48586;50.122;18.972;2022-10-30T15:13:27;98959.38;;;21.14;54.64
41040;BME280;48586;50.122;18.972;2022-10-30T15:16:29;98954.50;;;21.01;54.72
41040;BME280;48586;50.122;18.972;2022-10-30T15:19:35;98954.44;;;20.86;55.30
41040;BME280;48586;50.122;18.972;2022-10-30T15:22:37;98946.91;;;20.73;55.49
41040;BME280;48586;50.122;18.972;2022-10-30T15:25:45;98948.78;;;20.62;55.66
41040;BME280;48586;50.122;18.972;2022-10-30T15:28:49;98940.41;;;20.48;55.91
41040;BME280;48586;50.122;18.972;2022-10-30T15:31:59;98948.69;;;20.36;56.39
41040;BME280;48586;50.122;18.972;2022-10-30T15:35:08;98942.44;;;20.26;56.64
41040;BME280;48586;50.122;18.972;2022-10-30T15:38:13;98946.72;;;20.16;56.97
41040;BME280;48586;50.122;18.972;2022-10-30T15:41:17;98952.09;;;20.11;57.07
41040;BME280;48586;50.122;18.972;2022-10-30T15:44:21;98946.97;;;20.05;57.36
41040;BME280;48586;50.122;18.972;2022-10-30T15:47:24;98946.88;;;19.94;57.61
41040;BME280;48586;50.122;18.972;2022-10-30T15:50:26;98950.31;;;19.85;57.84
41040;BME280;48586;50.122;18.972;2022-10-30T15:53:34;98948.91;;;19.72;58.22
41040;BME280;48586;50.122;18.972;2022-10-30T15:56:43;98951.53;;;19.62;58.66
41040;BME280;48586;50.122;18.972;2022-10-30T15:59:49;98953.59;;;19.50;58.93
41040;BME280;48586;50.122;18.972;2022-10-30T16:03:04;98958.09;;;19.39;59.35
41040;BME280;48586;50.122;18.972;2022-10-30T16:06:14;98952.38;;;19.30;59.57
41040;BME280;48586;50.122;18.972;2022-10-30T16:09:17;98950.16;;;19.22;59.82
41040;BME280;48586;50.122;18.972;2022-10-30T16:12:22;98939.63;;;19.15;60.10
41040;BME280;48586;50.122;18.972;2022-10-30T16:15:27;98936.91;;;19.10;60.26
41040;BME280;48586;50.122;18.972;2022-10-30T16:18:31;98940.84;;;19.03;60.62
41040;BME280;48586;50.122;18.972;2022-10-30T16:21:35;98945.59;;;18.95;61.42
41040;BME280;48586;50.122;18.972;2022-10-30T16:24:38;98941.28;;;18.89;60.70
41040;BME280;48586;50.122;18.972;2022-10-30T16:27:44;98944.75;;;18.90;60.78
41040;BME280;48586;50.122;18.972;2022-10-30T16:30:46;98946.34;;;18.86;60.88